Time;durP1;ratioP1;P1;durP2;ratioP2;P2;SDS_P1;SDS_P2;PMS_P1;PMS_P2;Temp;Humidity;BMP_temperature;BMP_pressure;BME280_temperature;BME280_humidity;BME280_pressure;Samples;Min_cycle;Max_cycle;Signal;HPM_P1;HPM_P2
2021/12/17 00:00:27;;;;;;;55.93;36.07;;;4.70;99.90;;;;;;6218703;23;20163;-82
2021/12/17 00:03:10;;;;;;;59.43;36.03;;;4.70;99.90;;;;;;6218341;23;20163;-82
2021/12/17 00:05:52;;;;;;;54.83;35.70;;;4.70;99.90;;;;;;6218546;23;20479;-84
2021/12/17 00:08:21;;;;;;;53.30;35.73;;;4.80;99.90;;;;;;6218468;23;20194;-83
2021/12/17 00:10:50;;;;;;;45.70;34.30;;;4.90;99.90;;;;;;6218746;23;20282;-81
2021/12/17 00:13:21;;;;;;;54.20;41.15;;;4.90;99.90;;;;;;6220492;23;20716;-80
2021/12/17 00:15:49;;;;;;;56.10;37.63;;;5.00;99.90;;;;;;6222357;23;20177;-84
2021/12/17 00:18:25;;;;;;;69.10;40.23;;;5.00;99.90;;;;;;6221609;23;20269;-85
2021/12/17 00:40:32;;;;;;;52.07;31.97;;;5.10;99.90;;;;;;6219710;23;20204;-80
2021/12/17 00:48:37;;;;;;;59.47;30.37;;;4.90;99.90;;;;;;6219088;23;20278;-83
2021/12/17 00:54:13;;;;;;;76.70;33.47;;;4.80;99.90;;;;;;6218333;23;20171;-82
2021/12/17 00:56:40;;;;;;;87.77;33.87;;;4.90;99.90;;;;;;6217063;23;20174;-80
2021/12/17 00:59:07;;;;;;;91.17;36.67;;;4.90;99.90;;;;;;6219121;23;20210;-82
2021/12/17 01:01:35;;;;;;;87.83;35.10;;;4.80;99.90;;;;;;6218452;23;20497;-84
2021/12/17 01:04:03;;;;;;;105.30;35.47;;;4.80;99.90;;;;;;6218636;23;20163;-81
2021/12/17 01:06:31;;;;;;;89.03;34.97;;;4.80;99.90;;;;;;6218027;23;20177;-83
2021/12/17 01:08:59;;;;;;;87.77;34.23;;;4.60;99.90;;;;;;6218497;23;20162;-81
2021/12/17 01:11:27;;;;;;;74.37;33.87;;;4.50;99.90;;;;;;6217737;23;20195;-81
2021/12/17 01:13:57;;;;;;;80.50;33.83;;;4.60;99.90;;;;;;6218221;23;20170;-82
2021/12/17 01:16:24;;;;;;;85.93;34.63;;;4.60;99.90;;;;;;6218545;23;20163;-79
2021/12/17 01:19:02;;;;;;;82.33;34.47;;;4.50;99.90;;;;;;6217320;23;20621;-83
2021/12/17 01:21:41;;;;;;;69.33;33.07;;;4.50;99.90;;;;;;6217963;23;20246;-82
2021/12/17 01:24:30;;;;;;;57.03;32.47;;;4.60;99.90;;;;;;6218263;23;20220;-82
2021/12/17 01:35:22;;;;;;;41.13;30.40;;;4.80;99.90;;;;;;6219095;23;20169;-82
2021/12/17 01:43:27;;;;;;;62.57;34.40;;;4.80;99.90;;;;;;6218182;23;20162;-83
2021/12/17 01:45:55;;;;;;;62.90;36.30;;;4.80;99.90;;;;;;6219756;23;20169;-81
2021/12/17 01:48:28;;;;;;;85.93;38.40;;;4.90;99.90;;;;;;6217937;23;20163;-81
2021/12/17 01:56:54;;;;;;;95.28;57.13;;;4.90;99.90;;;;;;6219810;23;20390;-85
2021/12/17 01:59:26;;;;;;;76.87;40.90;;;5.00;99.90;;;;;;6222858;23;20289;-82
2021/12/17 02:02:01;;;;;;;94.80;39.90;;;5.00;99.90;;;;;;6222497;23;20227;-84
2021/12/17 02:04:31;;;;;;;80.10;37.83;;;5.00;99.90;;;;;;6221981;23;20178;-82
2021/12/17 02:07:00;;;;;;;61.13;39.83;;;4.90;99.90;;;;;;6220820;23;20175;-87
2021/12/17 02:29:28;;;;;;;81.07;36.60;;;4.50;99.90;;;;;;6220070;23;20651;-84
2021/12/17 02:31:59;;;;;;;87.00;39.77;;;4.40;99.90;;;;;;6218270;23;20175;-84
2021/12/17 02:34:42;;;;;;;99.57;38.90;;;4.40;99.90;;;;;;6218381;23;20397;-89
2021/12/17 02:37:16;;;;;;;73.73;35.70;;;4.30;99.90;;;;;;6219981;23;20178;-85
2021/12/17 02:40:01;;;;;;;66.03;35.10;;;4.10;99.90;;;;;;6219792;23;20471;-83
2021/12/17 02:45:32;;;;;;;74.57;36.30;;;4.00;99.90;;;;;;6218341;23;20415;-85
2021/12/17 02:45:41;;;;;;;62.67;35.60;;;3.90;99.90;;;;;;6220134;23;20479;-87
2021/12/17 02:48:12;;;;;;;58.83;35.53;;;3.70;99.90;;;;;;6221315;23;20395;-84
2021/12/17 02:50:42;;;;;;;52.90;36.07;;;3.70;99.90;;;;;;6220627;23;20397;-82
2021/12/17 02:53:12;;;;;;;75.27;36.80;;;3.70;99.90;;;;;;6220047;23;20397;-84
2021/12/17 02:55:41;;;;;;;72.90;35.87;;;3.80;99.90;;;;;;6220802;23;20420;-82
2021/12/17 02:58:11;;;;;;;67.90;35.63;;;3.80;99.90;;;;;;6223070;23;20396;-87
2021/12/17 03:00:42;;;;;;;62.17;35.10;;;3.80;99.90;;;;;;6221074;23;20393;-84
2021/12/17 03:03:10;;;;;;;56.20;33.43;;;3.90;99.90;;;;;;6219442;23;20802;-85
2021/12/17 03:05:40;;;;;;;67.00;34.80;;;3.80;99.90;;;;;;6221516;23;20400;-81
2021/12/17 03:08:11;;;;;;;54.50;29.80;;;3.90;99.90;;;;;;6220828;23;20418;-84
2021/12/17 03:10:40;;;;;;;53.87;29.43;;;4.00;99.90;;;;;;6221539;23;20935;-84
2021/12/17 03:13:09;;;;;;;68.30;33.97;;;4.10;99.90;;;;;;6221029;23;20404;-82
2021/12/17 03:15:42;;;;;;;62.00;30.77;;;4.20;99.90;;;;;;6221928;23;20166;-82
2021/12/17 03:18:45;;;;;;;94.93;34.13;;;4.30;99.90;;;;;;6220124;23;20171;-82
2021/12/17 03:23:55;;;;;;;64.70;30.13;;;4.60;99.90;;;;;;6220439;23;20221;-84
2021/12/17 03:26:26;;;;;;;70.70;32.03;;;4.50;99.90;;;;;;6221315;23;20186;-84
2021/12/17 03:29:02;;;;;;;58.20;30.30;;;4.50;99.90;;;;;;6221319;23;20499;-86
2021/12/17 03:31:30;;;;;;;76.37;31.73;;;4.50;99.90;;;;;;6221596;23;20167;-83
2021/12/17 03:34:08;;;;;;;117.00;37.17;;;4.60;99.90;;;;;;6220725;23;20173;-80
2021/12/17 03:36:35;;;;;;;87.05;44.22;;;4.70;99.90;;;;;;6218106;23;20863;-84
2021/12/17 03:39:01;;;;;;;81.43;31.33;;;4.80;99.90;;;;;;6220357;23;20218;-81
2021/12/17 03:41:36;;;;;;;78.97;28.40;;;4.60;99.90;;;;;;6219279;23;20167;-83
2021/12/17 03:44:07;;;;;;;79.33;30.37;;;4.60;99.90;;;;;;6218804;23;20170;-82
2021/12/17 03:46:35;;;;;;;55.60;27.67;;;4.80;99.90;;;;;;6219431;23;20166;-82
2021/12/17 03:49:03;;;;;;;62.87;25.93;;;4.80;99.90;;;;;;6220176;23;20175;-81
2021/12/17 03:51:36;;;;;;;63.60;26.00;;;4.80;99.90;;;;;;6220001;23;20199;-87
2021/12/17 03:54:05;;;;;;;66.20;26.27;;;4.90;99.90;;;;;;6220084;23;20202;-78
2021/12/17 03:56:35;;;;;;;92.73;27.67;;;4.90;99.90;;;;;;6219829;23;20181;-80
2021/12/17 03:59:10;;;;;;;154.13;27.43;;;4.90;99.90;;;;;;6220951;23;20198;-82
2021/12/17 04:01:37;;;;;;;160.50;29.87;;;4.80;99.90;;;;;;6220021;23;20517;-81
2021/12/17 04:04:04;;;;;;;116.50;27.37;;;4.70;99.90;;;;;;6217987;23;20179;-79
2021/12/17 04:06:32;;;;;;;97.93;29.57;;;4.80;99.90;;;;;;6220330;23;20170;-82
2021/12/17 04:09:00;;;;;;;103.87;27.27;;;4.80;99.90;;;;;;6225511;23;20507;-86
2021/12/17 04:11:29;;;;;;;105.97;29.73;;;4.80;99.90;;;;;;6223490;23;20199;-80
2021/12/17 04:14:02;;;;;;;86.37;35.57;;;4.90;99.90;;;;;;6218732;23;20230;-79
2021/12/17 04:16:32;;;;;;;83.07;36.40;;;5.00;99.90;;;;;;6217710;23;20199;-79
2021/12/17 04:19:00;;;;;;;86.20;38.23;;;5.00;99.90;;;;;;6217001;23;20288;-78
2021/12/17 04:21:27;;;;;;;104.60;38.23;;;5.10;99.90;;;;;;6217228;23;20259;-82
2021/12/17 04:23:55;;;;;;;109.23;38.23;;;5.10;99.90;;;;;;6216776;23;20181;-77
2021/12/17 04:26:23;;;;;;;115.20;40.27;;;5.10;99.90;;;;;;6216387;23;20187;-83
2021/12/17 04:28:52;;;;;;;144.57;41.17;;;5.00;99.90;;;;;;6216529;23;20170;-79
2021/12/17 04:31:27;;;;;;;82.73;35.57;;;5.20;99.90;;;;;;6215873;23;20680;-78
2021/12/17 04:33:54;;;;;;;149.97;40.67;;;5.10;99.90;;;;;;6215766;23;20221;-79
2021/12/17 04:36:25;;;;;;;105.07;39.90;;;5.10;99.90;;;;;;6216272;23;20489;-80
2021/12/17 04:38:54;;;;;;;138.80;40.70;;;5.20;99.90;;;;;;6215276;23;20622;-78
2021/12/17 04:44:07;;;;;;;167.23;41.77;;;5.20;99.90;;;;;;6211623;23;20514;-79
2021/12/17 04:46:41;;;;;;;169.73;46.60;;;5.30;99.90;;;;;;6216189;23;20179;-81
2021/12/17 04:57:32;;;;;;;123.43;44.03;;;5.50;99.90;;;;;;6216331;23;20178;-80
2021/12/17 05:00:04;;;;;;;92.37;40.17;;;5.50;99.90;;;;;;6215137;23;20662;-79
2021/12/17 05:02:40;;;;;;;112.87;39.23;;;5.60;99.90;;;;;;6216018;23;20266;-80
2021/12/17 05:05:09;;;;;;;97.07;40.43;;;5.60;99.90;;;;;;6216447;23;20169;-81
2021/12/17 05:07:42;;;;;;;88.87;36.53;;;5.70;99.90;;;;;;6215812;23;20174;-81
2021/12/17 05:10:17;;;;;;;88.67;37.27;;;5.60;99.90;;;;;;6216143;23;20174;-80
2021/12/17 05:18:24;;;;;;;125.38;45.95;;;5.40;99.90;;;;;;6149731;23;20721;-79
2021/12/17 05:20:55;;;;;;;122.97;39.23;;;5.30;99.90;;;;;;6215802;23;20194;-80
2021/12/17 05:23:28;;;;;;;91.50;37.00;;;5.20;99.90;;;;;;6216641;23;20246;-82
2021/12/17 05:25:55;;;;;;;87.80;34.13;;;5.00;99.90;;;;;;6216451;23;20192;-80
2021/12/17 05:28:22;;;;;;;104.17;36.40;;;4.90;99.90;;;;;;6215763;23;20163;-79
2021/12/17 05:30:49;;;;;;;85.43;31.90;;;4.80;99.90;;;;;;6215748;23;20554;-79
2021/12/17 05:33:19;;;;;;;82.60;28.70;;;5.00;99.90;;;;;;6216649;23;20241;-80
2021/12/17 05:35:47;;;;;;;84.80;28.53;;;5.00;99.90;;;;;;6216185;23;20163;-84
2021/12/17 05:38:16;;;;;;;99.70;28.40;;;4.80;99.90;;;;;;6216380;23;20551;-80
2021/12/17 05:40:43;;;;;;;103.47;29.03;;;4.80;99.90;;;;;;6216245;23;20214;-81
2021/12/17 05:43:11;;;;;;;109.43;30.13;;;4.90;99.90;;;;;;6215489;23;20167;-80
2021/12/17 05:45:49;;;;;;;119.90;31.90;;;4.90;99.90;;;;;;6215764;23;20163;-84
2021/12/17 05:48:21;;;;;;;119.83;30.90;;;4.80;99.90;;;;;;6215956;23;20225;-80
2021/12/17 05:50:50;;;;;;;107.33;30.63;;;4.80;99.90;;;;;;6216136;23;20167;-82
2021/12/17 05:53:17;;;;;;;103.93;28.77;;;4.90;99.90;;;;;;6216101;23;20169;-79
2021/12/17 05:55:44;;;;;;;88.47;27.67;;;4.80;99.90;;;;;;6216022;23;20481;-78
2021/12/17 05:58:13;;;;;;;97.50;28.77;;;4.60;99.90;;;;;;6215883;23;20170;-81
2021/12/17 06:00:41;;;;;;;128.43;30.40;;;4.60;99.90;;;;;;6214822;23;20210;-79
2021/12/17 06:03:09;;;;;;;112.13;28.97;;;4.80;99.90;;;;;;6215465;23;20253;-79
2021/12/17 06:05:38;;;;;;;89.53;27.83;;;4.70;99.90;;;;;;6214893;23;20513;-77
2021/12/17 06:08:06;;;;;;;112.73;28.77;;;4.60;99.90;;;;;;6215086;23;20178;-79
2021/12/17 06:10:34;;;;;;;139.47;32.43;;;4.50;99.90;;;;;;6215342;23;20194;-79
2021/12/17 06:13:00;;;;;;;117.20;31.33;;;4.50;99.90;;;;;;6214928;23;20163;-80
2021/12/17 06:15:27;;;;;;;166.50;38.17;;;4.50;99.90;;;;;;6215308;23;20162;-79
2021/12/17 06:17:56;;;;;;;123.97;35.07;;;4.70;99.90;;;;;;6215384;23;20615;-83
2021/12/17 06:20:24;;;;;;;160.47;37.57;;;4.70;99.90;;;;;;6215719;23;20197;-81
2021/12/17 06:22:53;;;;;;;127.20;35.43;;;4.80;99.90;;;;;;6216092;23;20221;-83
2021/12/17 06:25:20;;;;;;;167.73;38.67;;;4.80;99.90;;;;;;6214931;23;20178;-79
2021/12/17 06:27:47;;;;;;;154.47;37.90;;;4.70;99.90;;;;;;6214999;23;20174;-80
2021/12/17 06:30:17;;;;;;;143.13;35.93;;;4.70;99.90;;;;;;6215359;23;20561;-84
2021/12/17 06:32:44;;;;;;;177.50;39.00;;;4.70;99.90;;;;;;6216270;23;20166;-80
2021/12/17 06:35:12;;;;;;;185.87;44.10;;;4.80;99.90;;;;;;6215803;23;20173;-79
2021/12/17 06:37:41;;;;;;;175.13;39.57;;;4.90;99.90;;;;;;6215755;23;20173;-81
2021/12/17 06:40:11;;;;;;;158.90;39.73;;;4.80;99.90;;;;;;6214866;23;20190;-80
2021/12/17 06:42:38;;;;;;;156.97;38.73;;;4.70;99.90;;;;;;6215398;23;20173;-79
2021/12/17 06:45:14;;;;;;;185.67;41.53;;;4.80;99.90;;;;;;6215689;23;20167;-83
2021/12/17 06:47:45;;;;;;;185.03;42.60;;;4.80;99.90;;;;;;6215650;23;20163;-79
2021/12/17 06:56:34;;;;;;;160.40;39.87;;;5.00;99.90;;;;;;6215255;23;20166;-79
2021/12/17 07:10:12;;;;;;;148.17;39.60;;;5.50;99.90;;;;;;6189162;23;20185;-80
2021/12/17 07:21:11;;;;;;;114.33;36.93;;;5.30;99.90;;;;;;6215421;23;20206;-79
2021/12/17 07:32:19;;;;;;;135.43;38.90;;;5.10;99.90;;;;;;6166736;23;20178;-82
2021/12/17 07:34:52;;;;;;;138.97;37.97;;;5.20;99.90;;;;;;6218234;23;20179;-82
2021/12/17 07:40:05;;;;;;;123.03;36.83;;;5.30;99.90;;;;;;6217848;23;20221;-84
2021/12/17 07:42:32;;;;;;;191.00;38.53;;;5.30;99.90;;;;;;6218538;23;20174;-82
2021/12/17 07:45:01;;;;;;;150.97;39.83;;;5.30;99.90;;;;;;6217975;23;20469;-84
2021/12/17 07:47:28;;;;;;;168.87;44.67;;;5.40;99.90;;;;;;6217171;23;20174;-82
2021/12/17 07:49:55;;;;;;;135.27;36.77;;;5.50;99.90;;;;;;6217579;23;20177;-84
2021/12/17 07:52:22;;;;;;;117.20;35.67;;;5.70;99.90;;;;;;6216855;23;20602;-85
2021/12/17 07:54:49;;;;;;;121.30;34.87;;;5.50;99.90;;;;;;6217054;23;20174;-82
2021/12/17 07:57:16;;;;;;;125.87;36.60;;;5.50;99.90;;;;;;6217294;23;20294;-84
2021/12/17 07:59:44;;;;;;;125.73;35.70;;;5.40;99.90;;;;;;6216889;23;20202;-81
2021/12/17 08:02:12;;;;;;;125.70;34.30;;;5.50;99.90;;;;;;6217110;23;20170;-83
2021/12/17 08:04:39;;;;;;;109.93;34.43;;;5.50;99.90;;;;;;6217623;23;20472;-83
2021/12/17 08:07:06;;;;;;;150.63;34.77;;;5.50;99.90;;;;;;6217040;23;20174;-84
2021/12/17 08:09:33;;;;;;;204.83;38.20;;;5.70;99.90;;;;;;6217268;23;20499;-85
2021/12/17 08:12:00;;;;;;;150.50;37.83;;;5.80;99.90;;;;;;6222309;23;20659;-87
2021/12/17 08:14:29;;;;;;;156.17;36.40;;;5.90;99.90;;;;;;6222503;23;20222;-79
2021/12/17 08:17:05;;;;;;;170.20;36.27;;;5.80;99.90;;;;;;6220039;23;20178;-82
2021/12/17 08:25:17;;;;;;;133.27;34.93;;;5.80;99.90;;;;;;6220548;23;20279;-83
2021/12/17 08:27:50;;;;;;;153.20;35.27;;;5.70;99.90;;;;;;6218585;23;20181;-80
2021/12/17 08:30:24;;;;;;;136.70;33.00;;;5.90;99.90;;;;;;6217999;23;20197;-85
2021/12/17 08:32:53;;;;;;;131.30;32.80;;;5.80;99.90;;;;;;6217923;23;20612;-87
2021/12/17 08:35:22;;;;;;;128.97;34.97;;;5.90;99.90;;;;;;6218179;23;20170;-85
2021/12/17 08:37:49;;;;;;;122.97;32.73;;;6.00;99.90;;;;;;6218195;23;20653;-83
2021/12/17 08:40:16;;;;;;;142.13;33.50;;;5.90;99.90;;;;;;6219251;23;20680;-85
2021/12/17 08:42:50;;;;;;;122.20;33.13;;;5.80;99.90;;;;;;6217842;23;20175;-84
2021/12/17 08:45:20;;;;;;;186.30;37.33;;;5.90;99.90;;;;;;6216981;23;20246;-83
2021/12/17 08:47:50;;;;;;;129.43;34.43;;;6.00;99.90;;;;;;6215890;23;20181;-78
2021/12/17 08:50:18;;;;;;;152.93;36.60;;;6.10;99.90;;;;;;6215678;23;20182;-85
2021/12/17 08:52:47;;;;;;;199.80;37.33;;;6.30;99.90;;;;;;6216383;23;20178;-79
2021/12/17 08:55:15;;;;;;;174.33;35.97;;;6.00;99.90;;;;;;6220836;23;20175;-84
2021/12/17 08:57:43;;;;;;;143.63;34.90;;;6.00;99.90;;;;;;6220138;23;20170;-85
2021/12/17 09:00:13;;;;;;;171.20;36.57;;;6.10;99.90;;;;;;6227492;23;20209;-86
2021/12/17 09:02:43;;;;;;;115.00;32.33;;;6.00;99.90;;;;;;6225567;23;20599;-87
2021/12/17 09:05:11;;;;;;;104.90;31.97;;;5.90;99.90;;;;;;6224423;23;20177;-79
2021/12/17 09:07:38;;;;;;;125.77;34.80;;;5.80;99.90;;;;;;6222594;23;20175;-84
2021/12/17 09:10:08;;;;;;;110.53;32.57;;;5.90;99.90;;;;;;6222931;23;20284;-81
2021/12/17 09:12:36;;;;;;;158.40;35.33;;;5.90;99.90;;;;;;6222799;23;20230;-82
2021/12/17 09:15:03;;;;;;;145.53;34.17;;;5.80;99.90;;;;;;6227686;23;20171;-87
2021/12/17 09:17:30;;;;;;;127.87;34.77;;;5.80;99.90;;;;;;6227184;23;20174;-83
2021/12/17 09:19:57;;;;;;;112.17;33.40;;;6.00;99.90;;;;;;6226348;23;20191;-85
2021/12/17 09:22:24;;;;;;;144.00;35.23;;;6.00;99.90;;;;;;6225226;23;20197;-81
2021/12/17 09:24:50;;;;;;;110.93;34.80;;;5.90;99.90;;;;;;6223731;23;20191;-84
2021/12/17 09:27:21;;;;;;;97.33;31.90;;;6.20;99.90;;;;;;6223163;23;20212;-90
2021/12/17 09:29:56;;;;;;;143.98;46.67;;;6.30;99.90;;;;;;6215369;23;20478;-86
2021/12/17 09:32:29;;;;;;;119.83;37.20;;;6.50;99.90;;;;;;6216448;23;20206;-84
2021/12/17 09:35:02;;;;;;;104.83;33.50;;;6.50;99.90;;;;;;6216476;23;20209;-85
2021/12/17 09:37:28;;;;;;;97.60;32.87;;;6.60;99.90;;;;;;6216958;23;20178;-86
2021/12/17 09:39:55;;;;;;;96.13;31.47;;;6.30;99.90;;;;;;6216691;23;20182;-83
2021/12/17 09:42:26;;;;;;;85.40;31.40;;;6.30;99.90;;;;;;6218218;23;20170;-90
2021/12/17 09:44:53;;;;;;;89.23;31.67;;;6.30;99.90;;;;;;6216477;23;20170;-86
2021/12/17 09:47:20;;;;;;;91.00;31.30;;;6.40;99.90;;;;;;6215996;23;20561;-84
2021/12/17 09:49:53;;;;;;;85.33;29.73;;;6.50;99.90;;;;;;6216001;23;20178;-79
2021/12/17 09:52:20;;;;;;;96.00;32.60;;;6.60;99.90;;;;;;6215732;23;20163;-84
2021/12/17 09:54:47;;;;;;;83.03;30.00;;;6.60;99.90;;;;;;6215113;23;20171;-84
2021/12/17 09:57:14;;;;;;;100.03;31.60;;;6.60;99.90;;;;;;6214755;23;20194;-80
2021/12/17 09:59:45;;;;;;;92.47;32.53;;;6.50;99.90;;;;;;6214807;23;20240;-80
2021/12/17 10:02:14;;;;;;;104.17;34.07;;;6.50;99.90;;;;;;6214346;23;20210;-83
2021/12/17 10:04:44;;;;;;;83.67;31.37;;;6.70;99.90;;;;;;6213956;23;20189;-83
2021/12/17 10:07:19;;;;;;;83.07;31.93;;;6.50;99.90;;;;;;6214393;23;20543;-79
2021/12/17 10:09:49;;;;;;;92.00;33.67;;;6.50;99.90;;;;;;6215549;23;20178;-83
2021/12/17 10:12:16;;;;;;;99.53;35.73;;;6.70;99.90;;;;;;6215389;23;20209;-86
2021/12/17 10:14:59;;;;;;;104.33;35.70;;;6.70;99.90;;;;;;6216672;23;20170;-84
2021/12/17 10:17:26;;;;;;;91.87;35.30;;;6.90;99.90;;;;;;6215915;23;20179;-82
2021/12/17 10:20:05;;;;;;;93.67;36.33;;;6.90;99.90;;;;;;6216631;23;20193;-89
2021/12/17 10:22:38;;;;;;;99.87;36.40;;;7.10;99.90;;;;;;6215649;23;20488;-88
2021/12/17 10:25:07;;;;;;;94.60;35.47;;;7.20;99.90;;;;;;6217283;23;20163;-89
2021/12/17 10:27:37;;;;;;;94.77;35.57;;;7.20;99.90;;;;;;6213759;23;20237;-85
2021/12/17 10:30:18;;;;;;;100.60;36.10;;;7.10;99.90;;;;;;6215391;23;20167;-85
2021/12/17 10:32:50;;;;;;;90.73;37.23;;;7.30;99.90;;;;;;6216679;23;20169;-89
2021/12/17 10:35:21;;;;;;;96.43;36.23;;;7.40;99.90;;;;;;6215777;23;20184;-85
2021/12/17 10:37:56;;;;;;;113.65;46.25;;;7.40;99.90;;;;;;6214956;23;20399;-82
2021/12/17 10:40:26;;;;;;;110.10;42.57;;;7.40;99.90;;;;;;6217174;23;20216;-80
2021/12/17 10:43:05;;;;;;;97.17;37.47;;;7.30;99.90;;;;;;6223697;23;20169;-80
2021/12/17 10:45:42;;;;;;;99.93;38.73;;;7.30;99.90;;;;;;6226495;23;20167;-80
2021/12/17 10:51:21;;;;;;;95.80;36.97;;;7.30;99.90;;;;;;6168410;23;20185;-78
2021/12/17 10:53:54;;;;;;;103.70;38.10;;;7.50;99.90;;;;;;6221819;23;20167;-86
2021/12/17 10:56:23;;;;;;;103.77;39.07;;;7.50;99.90;;;;;;6220433;23;20179;-79
2021/12/17 10:59:02;;;;;;;108.47;38.60;;;7.50;99.90;;;;;;6225972;23;20269;-80
2021/12/17 11:01:33;;;;;;;105.70;39.40;;;7.60;99.90;;;;;;6217492;23;20504;-79
2021/12/17 11:04:09;;;;;;;116.07;47.30;;;7.50;99.90;;;;;;6216732;23;20898;-80
2021/12/17 11:06:47;;;;;;;105.57;42.30;;;7.80;99.90;;;;;;6220080;23;20392;-77
2021/12/17 11:09:36;;;;;;;101.80;40.00;;;8.00;99.90;;;;;;6218494;23;20163;-80
2021/12/17 11:12:17;;;;;;;97.60;38.83;;;8.00;99.90;;;;;;6218313;23;20198;-82
2021/12/17 11:14:45;;;;;;;88.73;37.23;;;8.00;99.90;;;;;;6217934;23;20547;-79
2021/12/17 11:17:15;;;;;;;99.70;38.67;;;8.00;99.90;;;;;;6221483;23;20170;-79
2021/12/17 11:19:43;;;;;;;87.97;37.90;;;8.00;99.90;;;;;;6222086;23;20235;-81
2021/12/17 11:22:10;;;;;;;108.00;38.97;;;7.90;99.90;;;;;;6220418;23;20201;-80
2021/12/17 11:24:39;;;;;;;99.50;37.50;;;7.90;99.90;;;;;;6220324;23;20642;-78
2021/12/17 11:27:07;;;;;;;107.20;38.20;;;8.10;99.90;;;;;;6220742;23;20265;-78
2021/12/17 11:29:35;;;;;;;107.85;45.25;;;8.20;99.90;;;;;;6219104;23;20708;-84
2021/12/17 11:32:04;;;;;;;100.63;40.80;;;8.50;99.90;;;;;;6220217;23;20163;-78
2021/12/17 11:34:39;;;;;;;104.80;39.57;;;8.60;99.90;;;;;;6220201;23;20198;-81
2021/12/17 11:37:09;;;;;;;95.50;37.63;;;8.30;99.90;;;;;;6217411;23;20166;-83
2021/12/17 11:39:48;;;;;;;102.27;38.27;;;8.20;99.90;;;;;;6218196;23;20170;-88
2021/12/17 11:42:49;;;;;;;85.37;37.33;;;8.30;99.90;;;;;;6217799;23;20202;-88
2021/12/17 11:45:30;;;;;;;89.17;36.37;;;8.20;99.90;;;;;;6217496;23;20175;-87
2021/12/17 11:48:18;;;;;;;90.70;36.23;;;8.40;99.90;;;;;;6218086;23;20598;-87
2021/12/17 11:51:00;;;;;;;97.17;36.40;;;8.30;99.90;;;;;;6218134;23;20178;-88
2021/12/17 11:53:58;;;;;;;91.53;36.53;;;8.40;99.90;;;;;;6216706;23;20174;-87
2021/12/17 11:56:39;;;;;;;94.07;44.45;;;8.50;99.90;;;;;;6215038;23;20712;-85
2021/12/17 11:59:08;;;;;;;82.93;36.57;;;8.80;99.90;;;;;;6216976;23;20178;-86
2021/12/17 12:01:55;;;;;;;83.07;35.13;;;8.90;99.90;;;;;;6217584;23;20199;-86
2021/12/17 12:04:39;;;;;;;80.03;34.17;;;9.10;99.90;;;;;;6218101;23;20181;-87
2021/12/17 12:07:31;;;;;;;78.77;32.17;;;9.00;99.90;;;;;;6218344;23;20229;-85
2021/12/17 12:10:09;;;;;;;76.03;32.03;;;8.60;99.90;;;;;;6218486;23;20167;-87
2021/12/17 12:12:57;;;;;;;72.50;30.80;;;8.50;99.90;;;;;;6219410;23;20182;-87
2021/12/17 12:15:44;;;;;;;76.80;32.43;;;8.40;99.90;;;;;;6218484;23;20181;-87
2021/12/17 12:18:21;;;;;;;71.30;31.97;;;8.40;99.90;;;;;;6218085;23;20171;-87
2021/12/17 12:21:02;;;;;;;79.00;31.87;;;8.50;99.90;;;;;;6218603;23;20197;-85
2021/12/17 12:23:57;;;;;;;71.60;32.03;;;8.60;99.90;;;;;;6218937;23;20163;-85
2021/12/17 12:26:38;;;;;;;68.73;31.87;;;8.60;99.90;;;;;;6219231;23;20204;-87
2021/12/17 12:29:10;;;;;;;62.30;28.70;;;8.70;99.90;;;;;;6217153;23;20173;-88
2021/12/17 12:31:58;;;;;;;64.73;28.70;;;8.70;99.90;;;;;;6215789;23;20210;-85
2021/12/17 12:34:38;;;;;;;62.00;28.93;;;8.70;99.90;;;;;;6216479;23;20174;-87
2021/12/17 12:37:28;;;;;;;58.10;28.50;;;8.60;99.90;;;;;;6217871;23;20192;-87
2021/12/17 12:40:21;;;;;;;60.47;29.43;;;8.50;99.90;;;;;;6218140;23;20163;-84
2021/12/17 12:42:51;;;;;;;63.40;30.27;;;8.40;99.90;;;;;;6217867;23;20206;-88
2021/12/17 12:45:20;;;;;;;57.77;29.03;;;8.40;99.90;;;;;;6217942;23;20185;-84
2021/12/17 12:47:58;;;;;;;54.33;26.70;;;8.20;99.90;;;;;;6218378;23;20167;-86
2021/12/17 12:50:30;;;;;;;59.13;32.80;;;8.20;99.90;;;;;;6217303;23;20689;-85
2021/12/17 12:53:00;;;;;;;55.47;28.17;;;8.20;99.90;;;;;;6216463;23;20182;-87
2021/12/17 12:55:32;;;;;;;52.53;26.70;;;8.20;99.90;;;;;;6216690;23;20178;-88
2021/12/17 12:58:06;;;;;;;54.37;26.00;;;8.10;99.90;;;;;;6216828;23;20170;-88
2021/12/17 13:00:35;;;;;;;56.20;27.47;;;8.10;99.90;;;;;;6215980;23;20192;-86
2021/12/17 13:03:05;;;;;;;55.17;27.07;;;8.30;99.90;;;;;;6215183;23;20290;-82
2021/12/17 13:05:33;;;;;;;55.57;25.80;;;8.10;99.90;;;;;;6215061;23;20508;-82
2021/12/17 13:08:04;;;;;;;50.77;26.03;;;8.20;99.90;;;;;;6215427;23;20178;-81
2021/12/17 13:10:34;;;;;;;49.67;25.33;;;8.30;99.90;;;;;;6214525;23;20194;-82
2021/12/17 13:13:11;;;;;;;46.10;25.60;;;8.20;99.90;;;;;;6215099;23;20610;-82
2021/12/17 13:15:45;;;;;;;56.23;25.80;;;8.30;99.90;;;;;;6215310;23;20178;-82
2021/12/17 13:23:52;;;;;;;52.33;24.87;;;8.20;99.90;;;;;;6214537;23;20186;-81
2021/12/17 13:26:23;;;;;;;55.80;26.27;;;8.30;99.90;;;;;;6214241;23;20178;-82
2021/12/17 13:28:59;;;;;;;50.37;23.33;;;8.30;99.90;;;;;;6215365;23;20178;-81
2021/12/17 13:31:36;;;;;;;55.30;25.93;;;8.50;99.90;;;;;;6214895;23;20170;-81
2021/12/17 13:34:11;;;;;;;55.90;25.93;;;8.50;99.90;;;;;;6216480;23;20246;-81
2021/12/17 13:36:43;;;;;;;55.07;26.00;;;8.50;99.90;;;;;;6217576;23;20182;-83
2021/12/17 13:39:13;;;;;;;51.23;24.63;;;8.40;99.90;;;;;;6217542;23;20167;-81
2021/12/17 13:41:43;;;;;;;49.40;24.97;;;8.50;99.90;;;;;;6216940;23;20187;-82
2021/12/17 13:44:33;;;;;;;57.67;25.27;;;8.40;99.90;;;;;;6217165;23;20167;-81
2021/12/17 13:47:22;;;;;;;54.90;25.40;;;8.40;99.90;;;;;;6216169;23;20170;-80
2021/12/17 13:49:54;;;;;;;62.03;27.10;;;8.50;99.90;;;;;;6216340;23;20251;-82
2021/12/17 13:52:24;;;;;;;56.50;25.43;;;8.60;99.90;;;;;;6216237;23;20510;-86
2021/12/17 13:54:58;;;;;;;60.43;27.00;;;8.40;99.90;;;;;;6215974;23;20176;-80
2021/12/17 13:57:28;;;;;;;68.83;27.10;;;8.40;99.90;;;;;;6215777;23;20166;-80
2021/12/17 14:00:09;;;;;;;57.40;27.37;;;8.40;99.90;;;;;;6215919;23;20170;-84
2021/12/17 14:02:38;;;;;;;57.47;27.57;;;8.50;99.90;;;;;;6215831;23;20226;-81
2021/12/17 14:05:08;;;;;;;58.23;29.53;;;8.50;99.90;;;;;;6215931;23;20179;-84
2021/12/17 14:07:36;;;;;;;63.57;30.13;;;8.50;99.90;;;;;;6216433;23;20179;-84
2021/12/17 14:10:07;;;;;;;70.67;30.73;;;8.40;99.90;;;;;;6214968;23;20201;-84
2021/12/17 14:12:39;;;;;;;73.63;32.20;;;8.50;99.90;;;;;;6215282;23;20174;-81
2021/12/17 14:15:09;;;;;;;70.70;32.13;;;8.40;99.90;;;;;;6215162;23;20591;-79
2021/12/17 14:17:38;;;;;;;69.63;31.77;;;8.40;99.90;;;;;;6215534;23;20163;-81
2021/12/17 14:20:10;;;;;;;75.80;32.23;;;8.30;99.90;;;;;;6215749;23;20173;-79
2021/12/17 14:22:40;;;;;;;83.40;32.90;;;8.20;99.90;;;;;;6221120;23;20197;-90
2021/12/17 14:25:31;;;;;;;76.77;31.43;;;8.30;99.90;;;;;;6226023;23;20174;-90
2021/12/17 14:28:03;;;;;;;83.10;34.13;;;8.40;99.90;;;;;;6228056;23;20686;-88
2021/12/17 14:30:34;;;;;;;74.03;32.63;;;8.30;99.90;;;;;;6228943;23;20197;-89
2021/12/17 14:33:08;;;;;;;76.77;33.90;;;8.40;99.90;;;;;;6228464;23;20177;-91
2021/12/17 14:35:47;;;;;;;79.77;33.37;;;8.40;99.90;;;;;;6224782;23;20185;-91
2021/12/17 14:38:17;;;;;;;74.63;30.23;;;8.30;99.90;;;;;;6226072;23;20218;-92
2021/12/17 14:41:01;;;;;;;82.03;33.40;;;8.30;99.90;;;;;;6225835;23;20230;-92
2021/12/17 14:43:39;;;;;;;79.90;33.03;;;8.30;99.90;;;;;;6226008;23;20533;-91
2021/12/17 14:46:17;;;;;;;81.60;33.93;;;8.50;99.90;;;;;;6219933;23;20593;-89
2021/12/17 14:49:03;;;;;;;90.97;35.30;;;8.30;99.90;;;;;;6217038;23;20174;-91
2021/12/17 14:57:30;;;;;;;83.90;35.87;;;8.30;99.90;;;;;;6221379;23;20379;-88
2021/12/17 15:00:25;;;;;;;92.83;36.67;;;8.40;99.90;;;;;;6221576;23;20192;-89
2021/12/17 15:02:57;;;;;;;82.57;35.93;;;8.40;99.90;;;;;;6217557;23;20198;-88
2021/12/17 15:05:27;;;;;;;92.80;38.00;;;8.40;99.90;;;;;;6219064;23;20175;-88
2021/12/17 15:07:58;;;;;;;86.17;37.43;;;8.40;99.90;;;;;;6218369;23;20175;-86
2021/12/17 15:10:31;;;;;;;85.10;35.90;;;8.40;99.90;;;;;;6219849;23;20166;-88
2021/12/17 15:13:16;;;;;;;71.17;34.33;;;8.70;99.90;;;;;;6219974;23;20166;-85
2021/12/17 15:15:50;;;;;;;79.15;36.35;;;8.60;99.90;;;;;;6222000;23;20346;-87
2021/12/17 15:18:19;;;;;;;90.03;35.80;;;8.60;99.90;;;;;;6221252;23;20229;-86
2021/12/17 15:20:56;;;;;;;74.37;33.97;;;8.70;99.90;;;;;;6219214;23;20626;-87
2021/12/17 15:23:26;;;;;;;64.90;31.73;;;9.00;99.90;;;;;;6218555;23;20285;-87